createdAt,value
2019-05-22T00:01:01.472Z,46.92
2019-05-22T00:03:51.829Z,46.20
2019-05-22T00:06:31.127Z,46.20
2019-05-22T00:09:10.459Z,47.10
2019-05-22T00:11:48.441Z,46.08
2019-05-22T00:14:24.895Z,46.53
2019-05-22T00:17:02.558Z,48.87
2019-05-22T00:19:40.471Z,45.58
2019-05-22T00:22:28.780Z,46.02
2019-05-22T00:25:06.914Z,47.73
2019-05-22T00:27:43.704Z,46.77
2019-05-22T00:30:20.375Z,47.03
2019-05-22T00:32:56.404Z,46.83
2019-05-22T00:35:34.103Z,46.75
2019-05-22T00:38:09.312Z,46.92
2019-05-22T00:40:47.484Z,47.33
2019-05-22T00:43:29.899Z,45.95
2019-05-22T00:46:08.393Z,47.50
2019-05-22T00:48:44.880Z,45.87
2019-05-22T00:51:37.683Z,46.40
2019-05-22T00:54:34.999Z,46.23
2019-05-22T00:57:29.179Z,46.30
2019-05-22T01:00:24.335Z,45.48
2019-05-22T01:03:01.444Z,46.55
2019-05-22T01:05:41.294Z,45.83
2019-05-22T01:08:16.360Z,46.40
2019-05-22T01:10:52.959Z,47.20
2019-05-22T01:13:30.720Z,46.13
2019-05-22T01:16:13.681Z,46.48
2019-05-22T01:18:49.856Z,45.88
2019-05-22T01:21:26.416Z,46.25
2019-05-22T01:24:01.291Z,47.17
2019-05-22T01:26:36.359Z,46.75
2019-05-22T01:29:13.760Z,45.98
2019-05-22T01:31:51.999Z,46.65
2019-05-22T01:34:30.023Z,45.45
2019-05-22T01:37:10.697Z,45.92
2019-05-22T01:40:09.947Z,45.43
2019-05-22T01:42:48.056Z,45.48
2019-05-22T01:45:25.172Z,44.23
2019-05-22T01:48:08.684Z,46.55
2019-05-22T01:50:57.749Z,45.70
2019-05-22T01:53:38.546Z,43.97
2019-05-22T01:56:15.700Z,45.17
2019-05-22T01:58:52.175Z,44.80
2019-05-22T02:01:30.223Z,43.15
2019-05-22T02:04:05.996Z,44.80
2019-05-22T02:06:41.390Z,44.30
2019-05-22T02:09:33.659Z,43.55
2019-05-22T02:12:18.347Z,43.75
2019-05-22T02:14:56.083Z,43.50
2019-05-22T02:17:35.343Z,43.63
2019-05-22T02:20:10.539Z,44.00
2019-05-22T02:22:47.082Z,43.93
2019-05-22T02:25:24.105Z,44.20
2019-05-22T02:27:59.014Z,43.53
2019-05-22T02:30:36.024Z,42.88
2019-05-22T02:33:12.345Z,43.30
2019-05-22T02:35:47.573Z,43.00
2019-05-22T02:38:23.299Z,44.33
2019-05-22T02:40:59.188Z,43.92
2019-05-22T02:43:35.863Z,43.50
2019-05-22T02:46:11.882Z,43.40
2019-05-22T02:48:48.966Z,42.05
2019-05-22T02:51:24.399Z,43.15
2019-05-22T02:54:01.877Z,43.25
2019-05-22T02:56:37.194Z,42.55
2019-05-22T02:59:12.784Z,40.85
2019-05-22T03:01:48.070Z,42.33
2019-05-22T03:04:26.800Z,42.53
2019-05-22T03:07:02.029Z,42.85
2019-05-22T03:09:38.408Z,42.73
2019-05-22T03:12:16.126Z,41.23
2019-05-22T03:14:51.920Z,42.07
2019-05-22T03:17:34.939Z,41.98
2019-05-22T03:20:13.440Z,42.37
2019-05-22T03:23:39.419Z,41.87
2019-05-22T03:26:16.756Z,40.38
2019-05-22T03:28:52.362Z,41.90
2019-05-22T03:31:28.260Z,42.23
2019-05-22T03:34:03.959Z,42.53
2019-05-22T03:36:39.397Z,41.77
2019-05-22T03:39:16.076Z,43.73
2019-05-22T03:41:51.874Z,42.13
2019-05-22T03:44:28.829Z,42.13
2019-05-22T03:47:05.827Z,43.40
2019-05-22T03:49:41.629Z,42.83
2019-05-22T03:52:16.490Z,43.00
2019-05-22T03:54:52.355Z,41.67
2019-05-22T03:57:29.019Z,42.43
2019-05-22T04:00:05.921Z,42.67
2019-05-22T04:02:41.544Z,42.83
2019-05-22T04:05:18.581Z,43.15
2019-05-22T04:07:54.516Z,43.05
2019-05-22T04:10:34.080Z,42.53
2019-05-22T04:13:09.096Z,42.57
2019-05-22T04:15:44.731Z,41.73
2019-05-22T04:18:26.027Z,41.18
2019-05-22T04:21:01.747Z,41.70
2019-05-22T04:23:37.707Z,41.63
2019-05-22T04:26:13.810Z,42.07
2019-05-22T04:28:50.985Z,42.62
2019-05-22T04:31:47.064Z,42.10
2019-05-22T04:34:22.580Z,42.73
2019-05-22T04:36:58.476Z,42.00
2019-05-22T04:39:35.736Z,42.93
2019-05-22T04:42:11.863Z,41.00
2019-05-22T04:45:09.028Z,40.37
2019-05-22T04:47:58.294Z,40.13
2019-05-22T04:50:33.890Z,40.70
2019-05-22T04:53:09.123Z,40.67
2019-05-22T04:55:44.124Z,40.33
2019-05-22T04:58:22.779Z,41.33
2019-05-22T05:00:57.755Z,40.07
2019-05-22T05:03:32.671Z,41.02
2019-05-22T05:06:07.749Z,39.47
2019-05-22T05:08:42.852Z,39.13
2019-05-22T05:11:19.032Z,41.00
2019-05-22T05:13:54.180Z,39.18
2019-05-22T05:16:30.219Z,39.33
2019-05-22T05:19:05.649Z,40.03
2019-05-22T05:21:40.751Z,39.80
2019-05-22T05:24:15.731Z,38.92
2019-05-22T05:26:51.723Z,40.05
2019-05-22T05:29:30.962Z,38.60
2019-05-22T05:32:05.983Z,38.03
2019-05-22T05:34:49.591Z,37.93
2019-05-22T05:37:24.999Z,37.15
2019-05-22T05:40:36.141Z,37.77
2019-05-22T05:43:13.500Z,37.80
2019-05-22T05:45:50.134Z,37.10
2019-05-22T05:48:25.817Z,37.00
2019-05-22T05:51:23.691Z,38.25
2019-05-22T05:54:05.554Z,37.80
2019-05-22T05:56:41.755Z,37.63
2019-05-22T05:59:18.741Z,37.80
2019-05-22T06:01:56.043Z,39.07
2019-05-22T06:04:37.515Z,39.17
2019-05-22T06:07:38.062Z,40.57
2019-05-22T06:10:50.432Z,38.20
2019-05-22T06:13:26.232Z,38.08
2019-05-22T06:16:48.924Z,38.23
2019-05-22T06:19:27.888Z,39.60
2019-05-22T06:22:04.110Z,38.45
2019-05-22T06:24:58.231Z,37.55
2019-05-22T06:27:52.921Z,37.13
2019-05-22T06:30:42.224Z,36.93
2019-05-22T06:33:38.671Z,37.10
2019-05-22T06:36:16.836Z,38.00
2019-05-22T06:38:59.672Z,36.70
2019-05-22T06:41:37.897Z,37.53
2019-05-22T06:44:41.646Z,38.35
2019-05-22T06:47:19.886Z,37.33
2019-05-22T06:49:59.149Z,38.03
2019-05-22T06:52:34.174Z,38.20
2019-05-22T06:55:09.117Z,37.73
2019-05-22T06:57:44.027Z,38.90
2019-05-22T07:00:22.080Z,37.53
2019-05-22T07:02:57.371Z,39.17
2019-05-22T07:05:33.857Z,38.35
2019-05-22T07:08:09.227Z,37.87
2019-05-22T07:10:44.762Z,38.70
2019-05-22T07:13:19.985Z,39.00
2019-05-22T07:15:55.419Z,39.10
2019-05-22T07:18:30.639Z,38.27
2019-05-22T07:21:06.548Z,39.18
2019-05-22T07:23:41.857Z,39.90
2019-05-22T07:26:16.644Z,38.70
2019-05-22T07:28:52.038Z,39.92
2019-05-22T07:31:26.985Z,39.78
2019-05-22T07:34:01.761Z,40.75
2019-05-22T07:36:37.196Z,39.92
2019-05-22T07:39:12.972Z,39.67
2019-05-22T07:41:48.033Z,40.00
2019-05-22T07:44:23.039Z,40.05
2019-05-22T07:46:58.556Z,39.63
2019-05-22T07:49:34.239Z,39.30
2019-05-22T07:52:09.851Z,39.88
2019-05-22T07:54:44.963Z,39.27
2019-05-22T07:57:23.775Z,39.98
2019-05-22T07:59:58.953Z,39.45
2019-05-22T08:02:39.845Z,39.88
2019-05-22T08:05:15.374Z,38.87
2019-05-22T08:07:51.731Z,38.88
2019-05-22T08:10:26.711Z,39.18
2019-05-22T08:13:01.739Z,39.78
2019-05-22T08:15:37.119Z,38.75
2019-05-22T08:18:12.643Z,39.25
2019-05-22T08:20:47.556Z,39.13
2019-05-22T08:23:23.296Z,39.03
2019-05-22T08:25:59.889Z,37.40
2019-05-22T08:28:35.476Z,37.67
2019-05-22T08:31:12.718Z,38.00
2019-05-22T08:33:47.923Z,38.48
2019-05-22T08:36:23.351Z,38.37
2019-05-22T08:39:00.599Z,37.73
2019-05-22T08:41:42.019Z,38.00
2019-05-22T08:44:17.924Z,38.08
2019-05-22T08:46:53.023Z,38.58
2019-05-22T08:49:28.423Z,37.80
2019-05-22T08:52:04.535Z,37.48
2019-05-22T08:54:39.810Z,37.65
2019-05-22T08:57:14.755Z,37.38
2019-05-22T08:59:49.748Z,38.08
2019-05-22T09:02:25.808Z,38.67
2019-05-22T09:05:00.715Z,38.70
2019-05-22T09:07:36.420Z,35.25
2019-05-22T09:10:12.503Z,37.50
2019-05-22T09:12:47.387Z,36.85
2019-05-22T09:15:22.884Z,38.40
2019-05-22T09:17:57.960Z,38.25
2019-05-22T09:20:48.251Z,37.38
2019-05-22T09:23:09.612Z,37.88
2019-05-22T09:25:44.550Z,38.45
2019-05-22T09:28:19.487Z,36.73
2019-05-22T09:30:54.392Z,37.33
2019-05-22T09:33:30.363Z,38.48
2019-05-22T09:36:05.574Z,37.63
2019-05-22T09:38:40.797Z,37.40
2019-05-22T09:41:15.620Z,37.35
2019-05-22T09:43:50.543Z,37.60
2019-05-22T09:46:27.254Z,37.15
2019-05-22T09:49:03.471Z,37.35
2019-05-22T09:51:38.843Z,38.53
2019-05-22T09:54:13.863Z,39.70
2019-05-22T09:56:48.822Z,37.78
2019-05-22T09:59:23.853Z,38.13
2019-05-22T10:01:59.891Z,37.70
2019-05-22T10:04:55.085Z,37.25
2019-05-22T10:07:30.022Z,38.25
2019-05-22T10:10:06.183Z,37.88
2019-05-22T10:12:41.498Z,37.38
2019-05-22T10:15:17.248Z,37.70
2019-05-22T10:17:52.187Z,37.73
2019-05-22T10:20:28.063Z,37.65
2019-05-22T10:23:15.001Z,37.70
2019-05-22T10:25:41.041Z,38.10
2019-05-22T10:28:16.204Z,37.30
2019-05-22T10:30:51.682Z,38.05
2019-05-22T10:33:26.812Z,38.13
2019-05-22T10:36:01.816Z,38.08
2019-05-22T10:38:36.795Z,36.63
2019-05-22T10:41:12.447Z,38.17
2019-05-22T10:43:47.739Z,37.03
2019-05-22T10:46:22.579Z,37.35
2019-05-22T10:48:57.460Z,37.83
2019-05-22T10:51:32.283Z,38.70
2019-05-22T10:54:07.769Z,39.58
2019-05-22T10:56:42.676Z,37.33
2019-05-22T10:59:17.694Z,37.88
2019-05-22T11:01:52.943Z,37.67
2019-05-22T11:04:29.458Z,35.40
2019-05-22T11:07:05.774Z,35.40
2019-05-22T11:09:52.793Z,36.15
2019-05-22T11:12:27.811Z,36.30
2019-05-22T11:15:05.778Z,35.10
2019-05-22T11:17:40.884Z,35.08
2019-05-22T11:20:16.915Z,35.13
2019-05-22T11:22:52.294Z,34.43
2019-05-22T11:25:27.592Z,34.73
2019-05-22T11:28:02.510Z,34.03
2019-05-22T11:30:37.724Z,33.75
2019-05-22T11:33:12.874Z,33.73
2019-05-22T11:35:54.499Z,34.05
2019-05-22T11:38:30.136Z,34.43
2019-05-22T11:41:06.630Z,34.05
2019-05-22T11:43:41.823Z,34.58
2019-05-22T11:46:17.339Z,34.18
2019-05-22T11:48:52.839Z,35.10
2019-05-22T11:51:27.753Z,33.98
2019-05-22T11:54:09.423Z,33.67
2019-05-22T11:56:39.497Z,33.95
2019-05-22T11:59:15.319Z,33.13
2019-05-22T12:01:51.307Z,33.65
2019-05-22T12:04:26.180Z,33.35
2019-05-22T12:07:01.790Z,33.83
2019-05-22T12:09:37.022Z,32.58
2019-05-22T12:12:11.975Z,33.20
2019-05-22T12:14:47.002Z,32.65
2019-05-22T12:17:37.413Z,32.93
2019-05-22T12:19:59.554Z,32.90
2019-05-22T12:22:34.871Z,32.50
2019-05-22T12:25:12.057Z,32.50
2019-05-22T12:27:46.983Z,33.35
2019-05-22T12:30:22.781Z,33.70
2019-05-22T12:32:59.409Z,33.95
2019-05-22T12:35:35.368Z,34.48
2019-05-22T12:38:11.494Z,33.67
2019-05-22T12:40:46.596Z,34.00
2019-05-22T12:43:21.622Z,34.05
2019-05-22T12:45:57.312Z,34.40
2019-05-22T12:48:32.324Z,33.78
2019-05-22T12:51:07.292Z,33.35
2019-05-22T12:53:43.077Z,33.78
2019-05-22T12:56:18.382Z,33.80
2019-05-22T12:58:54.877Z,34.00
2019-05-22T13:01:31.304Z,33.65
2019-05-22T13:04:06.803Z,34.08
2019-05-22T13:06:43.005Z,34.25
2019-05-22T13:09:19.107Z,33.45
2019-05-22T13:11:54.292Z,33.67
2019-05-22T13:14:29.736Z,33.23
2019-05-22T13:17:05.571Z,33.95
2019-05-22T13:19:42.879Z,33.65
2019-05-22T13:22:20.336Z,33.55
2019-05-22T13:24:55.949Z,33.78
2019-05-22T13:27:31.103Z,33.83
2019-05-22T13:30:07.752Z,33.86
2019-05-22T13:32:44.568Z,34.10
2019-05-22T13:35:20.741Z,33.47
2019-05-22T13:37:57.240Z,33.95
2019-05-22T13:40:33.176Z,33.00
2019-05-22T13:43:08.311Z,33.80
2019-05-22T13:45:43.300Z,33.88
2019-05-22T13:48:18.203Z,33.80
2019-05-22T13:50:53.310Z,33.45
2019-05-22T13:53:29.216Z,33.85
2019-05-22T13:56:04.475Z,34.78
2019-05-22T13:58:39.902Z,34.23
2019-05-22T14:01:15.171Z,34.45
2019-05-22T14:03:50.479Z,34.63
2019-05-22T14:06:26.319Z,33.63
2019-05-22T14:09:01.812Z,34.67
2019-05-22T14:11:37.290Z,34.30
2019-05-22T14:14:12.669Z,34.15
2019-05-22T14:16:49.138Z,34.73
2019-05-22T14:19:25.366Z,34.20
2019-05-22T14:22:00.304Z,34.35
2019-05-22T14:24:36.360Z,34.27
2019-05-22T14:27:11.215Z,35.15
2019-05-22T14:29:47.961Z,34.78
2019-05-22T14:32:29.692Z,33.75
2019-05-22T14:35:00.440Z,33.85
2019-05-22T14:37:37.223Z,34.50
2019-05-22T14:40:14.111Z,35.53
2019-05-22T14:42:49.631Z,33.85
2019-05-22T14:45:25.916Z,35.17
2019-05-22T14:48:00.887Z,34.08
2019-05-22T14:50:36.582Z,35.05
2019-05-22T14:53:12.094Z,34.85
2019-05-22T14:55:48.055Z,34.48
2019-05-22T14:58:23.330Z,34.38
2019-05-22T15:00:59.357Z,33.83
2019-05-22T15:03:35.193Z,34.67
2019-05-22T15:06:10.292Z,34.15
2019-05-22T15:08:54.657Z,34.30
2019-05-22T15:11:32.498Z,33.58
2019-05-22T15:14:07.811Z,34.65
2019-05-22T15:16:42.758Z,34.85
2019-05-22T15:19:18.360Z,33.98
2019-05-22T15:21:53.271Z,34.63
2019-05-22T15:24:28.820Z,33.53
2019-05-22T15:27:04.686Z,33.83
2019-05-22T15:29:39.680Z,33.98
2019-05-22T15:32:15.992Z,33.63
2019-05-22T15:34:51.274Z,33.30
2019-05-22T15:37:27.393Z,33.38
2019-05-22T15:40:03.129Z,33.30
2019-05-22T15:42:40.531Z,33.85
2019-05-22T15:45:19.696Z,33.53
2019-05-22T15:47:57.218Z,32.85
2019-05-22T15:50:35.085Z,33.08
2019-05-22T15:53:14.970Z,32.93
2019-05-22T15:55:49.515Z,33.15
2019-05-22T15:58:27.453Z,32.98
2019-05-22T16:01:05.222Z,32.95
2019-05-22T16:03:44.820Z,34.03
2019-05-22T16:06:21.836Z,33.65
2019-05-22T16:08:58.442Z,33.40
2019-05-22T16:11:34.859Z,34.67
2019-05-22T16:14:10.635Z,33.13
2019-05-22T16:16:48.903Z,33.70
2019-05-22T16:19:26.552Z,33.25
2019-05-22T16:22:06.825Z,33.55
2019-05-22T16:24:41.757Z,33.85
2019-05-22T16:27:18.060Z,33.48
2019-05-22T16:29:54.585Z,33.50
2019-05-22T16:32:31.575Z,33.33
2019-05-22T16:35:07.247Z,33.40
2019-05-22T16:37:42.198Z,33.67
2019-05-22T16:40:17.807Z,33.27
2019-05-22T16:42:54.643Z,33.45
2019-05-22T16:45:32.025Z,33.42
2019-05-22T16:48:07.900Z,33.83
2019-05-22T16:50:42.943Z,33.95
2019-05-22T16:53:19.421Z,33.35
2019-05-22T16:55:56.327Z,33.18
2019-05-22T16:58:31.603Z,33.85
2019-05-22T17:01:08.399Z,33.67
2019-05-22T17:03:43.391Z,33.30
2019-05-22T17:06:18.913Z,33.48
2019-05-22T17:08:56.036Z,33.53
2019-05-22T17:11:31.536Z,33.38
2019-05-22T17:14:08.903Z,33.38
2019-05-22T17:16:44.661Z,34.23
2019-05-22T17:19:27.082Z,34.20
2019-05-22T17:21:56.611Z,34.20
2019-05-22T17:24:34.206Z,33.88
2019-05-22T17:27:10.351Z,34.35
2019-05-22T17:29:45.662Z,33.90
2019-05-22T17:32:23.593Z,33.83
2019-05-22T17:35:00.110Z,34.00
2019-05-22T17:37:36.100Z,34.05
2019-05-22T17:40:14.638Z,33.83
2019-05-22T17:42:52.308Z,34.27
2019-05-22T17:45:28.126Z,33.55
2019-05-22T17:48:04.271Z,33.58
2019-05-22T17:50:40.191Z,34.03
2019-05-22T17:53:16.236Z,34.20
2019-05-22T17:56:03.501Z,35.13
2019-05-22T17:58:38.592Z,33.95
2019-05-22T18:01:16.303Z,33.88
2019-05-22T18:03:51.442Z,34.33
2019-05-22T18:06:46.528Z,34.38
2019-05-22T18:09:21.744Z,35.17
2019-05-22T18:12:02.768Z,34.53
2019-05-22T18:14:42.780Z,33.78
2019-05-22T18:17:18.624Z,34.25
2019-05-22T18:19:56.221Z,34.27
2019-05-22T18:22:32.997Z,34.43
2019-05-22T18:25:09.400Z,34.70
2019-05-22T18:27:44.672Z,34.38
2019-05-22T18:30:20.390Z,34.10
2019-05-22T18:32:57.273Z,34.05
2019-05-22T18:35:32.754Z,34.05
2019-05-22T18:38:07.771Z,34.35
2019-05-22T18:41:02.085Z,34.53
2019-05-22T18:43:37.867Z,34.35
2019-05-22T18:46:13.505Z,34.38
2019-05-22T18:48:49.278Z,34.03
2019-05-22T18:51:24.479Z,34.20
2019-05-22T18:53:59.543Z,34.38
2019-05-22T18:56:34.379Z,34.70
2019-05-22T18:59:09.242Z,34.60
2019-05-22T19:01:44.477Z,34.60
2019-05-22T19:04:19.582Z,35.23
2019-05-22T19:06:56.024Z,34.63
2019-05-22T19:09:31.155Z,34.45
2019-05-22T19:12:06.582Z,34.03
2019-05-22T19:14:41.431Z,33.80
2019-05-22T19:17:16.492Z,34.48
2019-05-22T19:19:51.713Z,34.53
2019-05-22T19:22:27.052Z,34.18
2019-05-22T19:25:05.053Z,34.50
2019-05-22T19:27:40.663Z,34.30
2019-05-22T19:30:18.014Z,34.10
2019-05-22T19:32:53.110Z,33.83
2019-05-22T19:35:28.241Z,33.75
2019-05-22T19:38:04.248Z,34.10
2019-05-22T19:40:39.174Z,34.15
2019-05-22T19:43:14.091Z,33.95
2019-05-22T19:45:49.839Z,34.03
2019-05-22T19:48:25.315Z,33.85
2019-05-22T19:51:02.113Z,33.80
2019-05-22T19:53:42.751Z,34.38
2019-05-22T19:56:23.841Z,35.48
2019-05-22T19:59:02.641Z,34.88
2019-05-22T20:01:38.606Z,33.30
2019-05-22T20:04:14.711Z,34.30
2019-05-22T20:06:50.030Z,34.25
2019-05-22T20:09:27.030Z,34.78
2019-05-22T20:12:03.169Z,37.20
2019-05-22T20:14:38.262Z,34.83
2019-05-22T20:17:14.325Z,34.65
2019-05-22T20:19:49.647Z,34.30
2019-05-22T20:22:25.995Z,34.53
2019-05-22T20:25:01.212Z,34.27
2019-05-22T20:27:36.772Z,34.38
2019-05-22T20:30:14.160Z,34.73
2019-05-22T20:32:50.019Z,34.90
2019-05-22T20:35:25.153Z,33.77
2019-05-22T20:38:00.680Z,34.95
2019-05-22T20:40:36.117Z,33.75
2019-05-22T20:43:12.268Z,34.30
2019-05-22T20:45:47.283Z,34.15
2019-05-22T20:48:27.892Z,34.05
2019-05-22T20:51:04.377Z,34.55
2019-05-22T20:53:52.674Z,34.33
2019-05-22T20:56:17.690Z,34.35
2019-05-22T20:58:53.393Z,34.03
2019-05-22T21:01:28.367Z,33.92
2019-05-22T21:04:06.383Z,34.08
2019-05-22T21:06:48.397Z,34.50
2019-05-22T21:09:23.307Z,33.70
2019-05-22T21:11:58.618Z,33.78
2019-05-22T21:14:33.995Z,33.85
2019-05-22T21:17:10.500Z,35.13
2019-05-22T21:19:47.446Z,35.43
2019-05-22T21:22:23.293Z,34.33
2019-05-22T21:24:58.879Z,33.70
2019-05-22T21:27:33.751Z,33.80
2019-05-22T21:30:10.033Z,33.08
2019-05-22T21:32:46.041Z,33.25
2019-05-22T21:35:22.686Z,33.47
2019-05-22T21:37:58.327Z,33.05
2019-05-22T21:40:33.951Z,33.05
2019-05-22T21:43:08.896Z,34.48
2019-05-22T21:45:44.123Z,35.25
2019-05-22T21:48:19.211Z,35.48
2019-05-22T21:50:54.150Z,34.98
2019-05-22T21:53:29.594Z,36.10
2019-05-22T21:56:06.371Z,36.40
2019-05-22T21:58:41.395Z,34.60
2019-05-22T22:01:25.539Z,34.73
2019-05-22T22:04:20.208Z,35.00
2019-05-22T22:06:56.348Z,35.03
2019-05-22T22:09:33.785Z,33.73
2019-05-22T22:12:10.694Z,34.10
2019-05-22T22:14:47.649Z,33.92
2019-05-22T22:17:24.311Z,33.33
2019-05-22T22:19:59.212Z,33.28
2019-05-22T22:22:34.153Z,33.33
2019-05-22T22:25:10.049Z,33.08
2019-05-22T22:27:45.992Z,33.35
2019-05-22T22:30:29.841Z,33.40
2019-05-22T22:33:09.191Z,32.70
2019-05-22T22:35:44.871Z,32.75
2019-05-22T22:38:22.049Z,32.70
2019-05-22T22:40:57.451Z,32.88
2019-05-22T22:43:33.131Z,32.30
2019-05-22T22:46:18.535Z,33.07
2019-05-22T22:48:55.710Z,32.25
2019-05-22T22:51:31.460Z,32.53
2019-05-22T22:54:07.939Z,32.78
2019-05-22T22:56:43.092Z,32.98
2019-05-22T22:59:18.039Z,33.23
2019-05-22T23:01:56.437Z,33.13
2019-05-22T23:04:31.980Z,32.93
2019-05-22T23:07:07.739Z,32.83
2019-05-22T23:09:44.131Z,32.33
2019-05-22T23:12:21.235Z,32.33
2019-05-22T23:15:00.162Z,32.70
2019-05-22T23:17:35.079Z,31.52
2019-05-22T23:20:09.234Z,32.83
2019-05-22T23:22:43.815Z,32.93
2019-05-22T23:25:19.359Z,32.00
2019-05-22T23:27:55.560Z,31.95
2019-05-22T23:30:31.146Z,31.70
2019-05-22T23:33:06.502Z,32.50
2019-05-22T23:35:41.419Z,32.58
2019-05-22T23:38:17.252Z,32.25
2019-05-22T23:40:53.778Z,32.58
2019-05-22T23:43:30.451Z,31.52
2019-05-22T23:46:08.906Z,32.60
2019-05-22T23:48:44.816Z,31.97
2019-05-22T23:51:20.698Z,32.17
2019-05-22T23:53:55.940Z,31.97
2019-05-22T23:56:32.743Z,32.45
2019-05-22T23:59:08.167Z,31.70
